createdAt,value
2022-09-11T00:01:22.212Z,18.08
2022-09-11T00:03:50.581Z,16.00
2022-09-11T00:06:29.355Z,16.65
2022-09-11T00:09:00.837Z,17.70
2022-09-11T00:11:30.262Z,16.67
2022-09-11T00:13:58.484Z,17.45
2022-09-11T00:16:28.842Z,16.58
2022-09-11T00:18:58.321Z,16.70
2022-09-11T00:21:28.123Z,16.77
2022-09-11T00:23:55.787Z,16.95
2022-09-11T00:26:24.626Z,16.58
2022-09-11T00:28:52.558Z,17.13
2022-09-11T00:31:23.560Z,17.25
2022-09-11T00:33:51.597Z,16.85
2022-09-11T00:36:21.458Z,16.67
2022-09-11T00:38:51.346Z,17.52
2022-09-11T00:41:22.564Z,17.40
2022-09-11T00:44:00.145Z,17.33
2022-09-11T00:46:35.654Z,16.92
2022-09-11T00:49:14.408Z,17.55
2022-09-11T00:51:43.065Z,18.00
2022-09-11T00:54:16.196Z,17.52
2022-09-11T00:56:44.958Z,17.10
2022-09-11T00:59:13.861Z,18.88
2022-09-11T01:01:41.879Z,18.85
2022-09-11T01:04:10.244Z,18.30
2022-09-11T01:06:37.734Z,19.27
2022-09-11T01:09:05.401Z,16.98
2022-09-11T01:11:47.955Z,18.17
2022-09-11T01:14:34.273Z,18.48
2022-09-11T01:17:16.003Z,18.13
2022-09-11T01:20:06.152Z,18.83
2022-09-11T01:23:03.495Z,19.15
2022-09-11T01:25:42.523Z,18.42
2022-09-11T01:28:16.273Z,18.83
2022-09-11T01:30:47.996Z,18.73
2022-09-11T01:33:23.581Z,18.65
2022-09-11T01:35:57.467Z,18.05
2022-09-11T01:38:33.248Z,18.05
2022-09-11T01:41:07.998Z,18.27
2022-09-11T01:43:42.601Z,18.67
2022-09-11T01:46:10.327Z,18.02
2022-09-11T01:48:42.866Z,19.88
2022-09-11T01:51:16.140Z,21.70
2022-09-11T01:53:50.173Z,20.73
2022-09-11T01:56:23.682Z,21.98
2022-09-11T01:58:57.092Z,22.10
2022-09-11T02:01:29.103Z,21.90
2022-09-11T02:04:05.036Z,22.40
2022-09-11T02:06:36.220Z,21.00
2022-09-11T02:09:09.357Z,21.77
2022-09-11T02:11:41.167Z,19.95
2022-09-11T02:14:17.745Z,20.10
2022-09-11T02:16:52.430Z,20.63
2022-09-11T02:19:21.602Z,20.98
2022-09-11T02:21:50.739Z,20.35
2022-09-11T02:24:20.166Z,21.60
2022-09-11T02:26:52.539Z,21.85
2022-09-11T02:29:22.024Z,20.50
2022-09-11T02:31:50.086Z,20.63
2022-09-11T02:34:18.790Z,20.35
2022-09-11T02:37:07.541Z,19.15
2022-09-11T02:39:49.198Z,19.02
2022-09-11T02:42:31.295Z,19.75
2022-09-11T02:45:10.856Z,20.27
2022-09-11T02:47:45.985Z,18.20
2022-09-11T02:50:24.549Z,18.83
2022-09-11T02:52:59.786Z,19.63
2022-09-11T02:55:39.735Z,18.65
2022-09-11T02:58:13.018Z,19.27
2022-09-11T03:00:42.457Z,20.55
2022-09-11T03:03:10.081Z,19.05
2022-09-11T03:05:40.154Z,20.33
2022-09-11T03:08:08.117Z,18.48
2022-09-11T03:10:35.823Z,19.23
2022-09-11T03:13:03.322Z,19.52
2022-09-11T03:15:31.317Z,21.00
2022-09-11T03:18:00.155Z,19.85
2022-09-11T03:20:27.775Z,19.60
2022-09-11T03:22:55.266Z,18.15
2022-09-11T03:25:23.665Z,20.25
2022-09-11T03:27:51.476Z,18.67
2022-09-11T03:30:19.258Z,20.58
2022-09-11T03:32:46.754Z,20.13
2022-09-11T03:35:16.513Z,22.02
2022-09-11T03:37:44.279Z,22.08
2022-09-11T03:40:12.085Z,22.08
2022-09-11T03:42:39.623Z,22.00
2022-09-11T03:45:09.024Z,24.60
2022-09-11T03:47:37.249Z,23.35
2022-09-11T03:50:05.327Z,22.98
2022-09-11T03:52:34.633Z,23.85
2022-09-11T03:55:02.114Z,23.67
2022-09-11T03:57:29.641Z,21.85
2022-09-11T03:59:57.157Z,22.88
2022-09-11T04:02:24.749Z,23.25
2022-09-11T04:04:52.224Z,24.00
2022-09-11T04:07:19.908Z,21.85
2022-09-11T04:09:48.728Z,22.23
2022-09-11T04:12:16.535Z,22.92
2022-09-11T04:14:44.171Z,24.02
2022-09-11T04:17:11.681Z,23.83
2022-09-11T04:19:39.173Z,22.40
2022-09-11T04:22:06.672Z,22.63
2022-09-11T04:24:34.606Z,23.65
2022-09-11T04:27:03.495Z,22.80
2022-09-11T04:29:32.391Z,23.98
2022-09-11T04:31:59.895Z,23.90
2022-09-11T04:34:27.485Z,23.70
2022-09-11T04:36:56.259Z,24.60
2022-09-11T04:39:24.133Z,22.85
2022-09-11T04:41:51.618Z,24.73
2022-09-11T04:44:20.967Z,24.83
2022-09-11T04:46:48.720Z,25.85
2022-09-11T04:49:16.995Z,25.17
2022-09-11T04:51:45.145Z,25.42
2022-09-11T04:54:15.321Z,24.05
2022-09-11T04:56:43.028Z,25.77
2022-09-11T04:59:15.709Z,25.70
2022-09-11T05:01:46.186Z,26.15
2022-09-11T05:04:14.514Z,25.90
2022-09-11T05:06:42.602Z,25.58
2022-09-11T05:09:11.354Z,25.85
2022-09-11T05:11:39.294Z,24.42
2022-09-11T05:14:07.565Z,25.92
2022-09-11T05:16:36.384Z,25.17
2022-09-11T05:19:05.637Z,27.88
2022-09-11T05:21:34.202Z,23.15
2022-09-11T05:24:02.901Z,24.70
2022-09-11T05:26:32.444Z,26.40
2022-09-11T05:29:02.102Z,28.63
2022-09-11T05:31:30.192Z,25.05
2022-09-11T05:33:58.994Z,25.35
2022-09-11T05:36:30.882Z,23.15
2022-09-11T05:38:59.064Z,24.30
2022-09-11T05:41:27.336Z,24.35
2022-09-11T05:43:55.464Z,24.08
2022-09-11T05:46:23.272Z,24.60
2022-09-11T05:48:50.789Z,24.60
2022-09-11T05:51:21.247Z,24.02
2022-09-11T05:53:53.693Z,24.65
2022-09-11T05:56:22.851Z,25.25
2022-09-11T05:58:52.122Z,24.95
2022-09-11T06:01:21.356Z,24.52
2022-09-11T06:03:49.578Z,24.42
2022-09-11T06:06:18.444Z,24.98
2022-09-11T06:08:47.315Z,23.52
2022-09-11T06:11:18.324Z,24.90
2022-09-11T06:13:47.306Z,24.33
2022-09-11T06:16:18.547Z,24.83
2022-09-11T06:18:48.954Z,24.20
2022-09-11T06:21:19.084Z,25.25
2022-09-11T06:23:47.349Z,24.50
2022-09-11T06:26:17.727Z,24.20
2022-09-11T06:28:45.509Z,25.30
2022-09-11T06:31:16.266Z,25.50
2022-09-11T06:33:44.450Z,25.40
2022-09-11T06:36:14.145Z,26.63
2022-09-11T06:38:41.944Z,25.58
2022-09-11T06:41:12.511Z,26.67
2022-09-11T06:43:42.015Z,24.20
2022-09-11T06:46:12.405Z,26.23
2022-09-11T06:48:40.157Z,24.88
2022-09-11T06:51:09.176Z,26.38
2022-09-11T06:53:36.672Z,24.15
2022-09-11T06:56:06.775Z,26.02
2022-09-11T06:58:34.708Z,24.85
2022-09-11T07:01:05.314Z,27.20
2022-09-11T07:03:33.509Z,26.13
2022-09-11T07:06:01.582Z,24.55
2022-09-11T07:08:29.069Z,24.98
2022-09-11T07:10:56.600Z,24.58
2022-09-11T07:13:24.591Z,25.27
2022-09-11T07:16:01.079Z,24.83
2022-09-11T07:18:36.002Z,25.08
2022-09-11T07:23:34.668Z,25.70
2022-09-11T07:26:03.985Z,24.67
2022-09-11T07:28:31.765Z,26.73
2022-09-11T07:31:11.485Z,25.10
2022-09-11T07:33:42.693Z,25.02
2022-09-11T07:36:12.146Z,25.38
2022-09-11T07:38:40.772Z,26.02
2022-09-11T07:41:08.799Z,23.83
2022-09-11T07:43:36.670Z,24.70
2022-09-11T07:46:04.690Z,25.88
2022-09-11T07:48:32.770Z,25.27
2022-09-11T07:51:04.297Z,26.50
2022-09-11T07:53:34.294Z,25.98
2022-09-11T07:56:03.735Z,23.50
2022-09-11T07:58:34.830Z,24.92
2022-09-11T08:01:03.569Z,24.17
2022-09-11T08:03:31.392Z,25.00
2022-09-11T08:06:00.943Z,24.42
2022-09-11T08:08:29.467Z,24.20
2022-09-11T08:10:57.248Z,25.70
2022-09-11T08:13:25.521Z,26.58
2022-09-11T08:15:53.039Z,25.80
2022-09-11T08:18:20.557Z,26.48
2022-09-11T08:20:48.175Z,25.63
2022-09-11T08:23:17.103Z,24.77
2022-09-11T08:25:45.360Z,23.58
2022-09-11T08:28:12.838Z,24.48
2022-09-11T08:30:40.471Z,25.23
2022-09-11T08:33:08.487Z,26.23
2022-09-11T08:35:36.396Z,25.38
2022-09-11T08:38:04.149Z,28.23
2022-09-11T08:40:38.830Z,25.48
2022-09-11T08:43:06.468Z,23.42
2022-09-11T08:45:36.350Z,23.98
2022-09-11T08:48:06.971Z,24.55
2022-09-11T08:50:39.278Z,25.83
2022-09-11T08:53:12.832Z,24.17
2022-09-11T08:55:47.616Z,24.77
2022-09-11T08:58:25.440Z,25.17
2022-09-11T09:00:57.343Z,26.75
2022-09-11T09:03:53.528Z,25.75
2022-09-11T09:06:39.936Z,25.67
2022-09-11T09:09:14.852Z,27.08
2022-09-11T09:14:30.158Z,23.33
2022-09-11T09:17:02.653Z,24.02
2022-09-11T09:19:34.632Z,22.58
2022-09-11T09:22:10.950Z,21.23
2022-09-11T09:24:43.894Z,21.83
2022-09-11T09:27:23.382Z,20.92
2022-09-11T09:29:55.611Z,20.92
2022-09-11T09:32:30.973Z,21.08
2022-09-11T09:35:02.096Z,20.65
2022-09-11T09:37:29.843Z,20.77
2022-09-11T09:39:57.949Z,21.08
2022-09-11T09:42:55.390Z,21.17
2022-09-11T09:45:47.871Z,19.77
2022-09-11T09:48:15.718Z,22.33
2022-09-11T09:50:44.894Z,21.58
2022-09-11T09:53:20.774Z,21.45
2022-09-11T09:55:49.389Z,21.20
2022-09-11T09:58:18.719Z,20.83
2022-09-11T10:00:46.206Z,20.80
2022-09-11T10:03:21.567Z,22.00
2022-09-11T10:05:51.005Z,21.58
2022-09-11T10:08:29.117Z,21.80
2022-09-11T10:10:58.874Z,24.38
2022-09-11T10:13:29.954Z,22.42
2022-09-11T10:16:00.458Z,22.63
2022-09-11T10:18:43.790Z,25.13
2022-09-11T10:21:17.081Z,22.90
2022-09-11T10:23:50.999Z,24.92
2022-09-11T10:26:22.654Z,24.35
2022-09-11T10:28:52.769Z,23.67
2022-09-11T10:31:22.769Z,24.80
2022-09-11T10:33:55.452Z,26.75
2022-09-11T10:36:25.372Z,28.05
2022-09-11T10:38:53.234Z,26.90
2022-09-11T10:41:23.367Z,27.13
2022-09-11T10:43:58.644Z,26.25
2022-09-11T10:46:39.881Z,25.20
2022-09-11T10:49:18.452Z,24.67
2022-09-11T10:52:01.205Z,26.17
2022-09-11T10:54:54.842Z,25.75
2022-09-11T10:57:25.236Z,24.08
2022-09-11T11:00:06.923Z,23.45
2022-09-11T11:02:35.938Z,24.88
2022-09-11T11:05:09.430Z,24.85
2022-09-11T11:07:59.603Z,25.38
2022-09-11T11:10:39.505Z,24.27
2022-09-11T11:13:20.229Z,24.27
2022-09-11T11:16:04.510Z,24.27
2022-09-11T11:18:45.147Z,23.70
2022-09-11T11:21:32.326Z,23.70
2022-09-11T11:24:17.681Z,21.33
2022-09-11T11:26:58.982Z,21.65
2022-09-11T11:30:00.477Z,22.42
2022-09-11T11:32:45.045Z,20.38
2022-09-11T11:35:24.250Z,21.75
2022-09-11T11:37:56.960Z,20.52
2022-09-11T11:40:29.869Z,21.98
2022-09-11T11:43:01.512Z,21.83
2022-09-11T11:45:33.197Z,21.92
2022-09-11T11:48:09.170Z,23.45
2022-09-11T11:50:42.125Z,23.58
2022-09-11T11:53:17.986Z,23.20
2022-09-11T11:55:55.793Z,21.80
2022-09-11T11:58:35.432Z,21.52
2022-09-11T12:01:07.441Z,21.10
2022-09-11T12:03:40.642Z,21.92
2022-09-11T12:06:08.658Z,23.17
2022-09-11T12:08:43.869Z,20.40
2022-09-11T12:11:14.924Z,19.90
2022-09-11T12:13:45.474Z,20.00
2022-09-11T12:16:19.064Z,20.05
2022-09-11T12:19:07.575Z,20.67
2022-09-11T12:21:43.310Z,22.13
2022-09-11T12:24:17.595Z,23.98
2022-09-11T12:26:45.658Z,23.10
2022-09-11T12:29:54.273Z,22.48
2022-09-11T12:32:35.474Z,23.10
2022-09-11T12:35:19.862Z,22.65
2022-09-11T12:37:54.157Z,23.43
2022-09-11T12:40:28.066Z,23.88
2022-09-11T12:43:16.834Z,23.70
2022-09-11T12:45:47.633Z,23.60
2022-09-11T12:48:17.465Z,22.58
2022-09-11T12:50:56.218Z,22.95
2022-09-11T12:53:29.403Z,22.95
2022-09-11T12:56:02.111Z,22.50
2022-09-11T12:58:35.358Z,23.83
2022-09-11T13:01:08.445Z,22.70
2022-09-11T13:03:37.626Z,23.80
2022-09-11T13:06:10.118Z,23.02
2022-09-11T13:08:40.934Z,23.30
2022-09-11T13:11:43.687Z,24.25
2022-09-11T13:14:49.030Z,23.17
2022-09-11T13:17:25.646Z,22.35
2022-09-11T13:19:54.513Z,21.83
2022-09-11T13:22:26.060Z,23.98
2022-09-11T13:25:06.266Z,22.33
2022-09-11T13:27:37.432Z,21.95
2022-09-11T13:30:07.431Z,22.15
2022-09-11T13:32:36.545Z,21.95
2022-09-11T13:35:11.058Z,22.08
2022-09-11T13:37:45.405Z,22.48
2022-09-11T13:40:20.496Z,22.23
2022-09-11T13:42:49.786Z,21.27
2022-09-11T13:45:19.944Z,21.38
2022-09-11T13:47:47.799Z,21.73
2022-09-11T13:50:17.694Z,21.15
2022-09-11T13:52:47.071Z,21.75
2022-09-11T13:55:19.202Z,21.83
2022-09-11T13:57:55.312Z,22.27
2022-09-11T14:00:39.899Z,21.42
2022-09-11T14:03:18.045Z,20.48
2022-09-11T14:05:51.043Z,20.88
2022-09-11T14:08:34.217Z,22.10
2022-09-11T14:11:10.422Z,19.85
2022-09-11T14:13:45.108Z,18.92
2022-09-11T14:16:22.377Z,19.67
2022-09-11T14:18:53.501Z,20.88
2022-09-11T14:21:23.946Z,20.17
2022-09-11T14:23:54.674Z,19.48
2022-09-11T14:26:24.058Z,18.92
2022-09-11T14:29:03.525Z,20.17
2022-09-11T14:31:34.892Z,20.52
2022-09-11T14:34:17.774Z,19.98
2022-09-11T14:36:49.954Z,19.77
2022-09-11T14:39:26.597Z,18.45
2022-09-11T14:41:55.506Z,19.38
2022-09-11T14:44:25.985Z,18.88
2022-09-11T14:46:54.812Z,19.00
2022-09-11T14:49:23.093Z,20.35
2022-09-11T14:51:57.938Z,19.40
2022-09-11T14:54:30.849Z,20.30
2022-09-11T14:56:59.051Z,18.33
2022-09-11T14:59:28.868Z,19.25
2022-09-11T15:01:58.362Z,18.42
2022-09-11T15:04:25.854Z,19.80
2022-09-11T15:06:55.331Z,19.38
2022-09-11T15:09:23.127Z,20.63
2022-09-11T15:11:52.947Z,20.02
2022-09-11T15:14:44.752Z,20.00
2022-09-11T15:17:10.455Z,19.42
2022-09-11T15:19:38.318Z,19.67
2022-09-11T15:22:06.788Z,19.67
2022-09-11T15:24:34.890Z,19.20
2022-09-11T15:27:04.136Z,18.42
2022-09-11T15:29:32.017Z,18.30
2022-09-11T15:32:01.031Z,18.52
2022-09-11T15:34:31.550Z,18.35
2022-09-11T15:36:59.190Z,17.58
2022-09-11T15:39:27.819Z,17.98
2022-09-11T15:41:56.050Z,17.88
2022-09-11T15:44:26.949Z,16.77
2022-09-11T15:46:56.342Z,16.60
2022-09-11T15:49:25.080Z,16.27
2022-09-11T15:51:53.788Z,15.82
2022-09-11T15:54:23.118Z,16.65
2022-09-11T15:56:50.822Z,16.50
2022-09-11T15:59:18.783Z,16.67
2022-09-11T16:01:47.836Z,17.50
2022-09-11T16:04:19.193Z,16.60
2022-09-11T16:06:48.392Z,17.00
2022-09-11T16:09:18.514Z,15.20
2022-09-11T16:11:47.676Z,16.33
2022-09-11T16:14:18.188Z,17.20
2022-09-11T16:16:47.995Z,14.95
2022-09-11T16:19:15.935Z,13.77
2022-09-11T16:21:43.714Z,14.38
2022-09-11T16:24:14.550Z,15.60
2022-09-11T16:26:43.882Z,15.07
2022-09-11T16:29:14.653Z,14.38
2022-09-11T16:31:42.566Z,13.93
2022-09-11T16:34:11.929Z,13.00
2022-09-11T16:36:40.262Z,12.75
2022-09-11T16:39:08.945Z,11.73
2022-09-11T16:41:37.723Z,11.18
2022-09-11T16:44:06.834Z,11.40
2022-09-11T16:46:35.472Z,11.60
2022-09-11T16:49:03.098Z,11.00
2022-09-11T16:51:32.087Z,12.27
2022-09-11T16:53:59.750Z,11.30
2022-09-11T16:56:27.666Z,12.63
2022-09-11T16:58:55.621Z,13.60
2022-09-11T17:01:24.591Z,14.13
2022-09-11T17:03:54.763Z,14.32
2022-09-11T17:06:24.004Z,14.23
2022-09-11T17:08:52.871Z,14.55
2022-09-11T17:11:22.800Z,14.48
2022-09-11T17:13:50.595Z,14.02
2022-09-11T17:16:20.239Z,13.95
2022-09-11T17:18:48.569Z,14.10
2022-09-11T17:21:17.261Z,14.38
2022-09-11T17:23:45.412Z,14.60
2022-09-11T17:26:16.790Z,12.90
2022-09-11T17:28:46.209Z,12.63
2022-09-11T17:31:15.428Z,13.23
2022-09-11T17:33:45.285Z,12.35
2022-09-11T17:36:14.651Z,13.40
2022-09-11T17:38:43.029Z,13.70
2022-09-11T17:41:11.724Z,13.57
2022-09-11T17:43:40.873Z,13.63
2022-09-11T17:46:11.093Z,13.68
2022-09-11T17:48:39.867Z,12.45
2022-09-11T17:51:10.664Z,12.90
2022-09-11T17:53:39.462Z,13.50
2022-09-11T17:56:09.611Z,13.23
2022-09-11T17:58:38.210Z,14.00
2022-09-11T18:01:08.042Z,14.00
2022-09-11T18:03:36.759Z,14.18
2022-09-11T18:06:17.253Z,13.05
2022-09-11T18:08:46.141Z,13.80
2022-09-11T18:11:13.927Z,13.70
2022-09-11T18:13:42.846Z,14.55
2022-09-11T18:16:11.955Z,14.38
2022-09-11T18:18:40.382Z,13.98
2022-09-11T18:21:09.182Z,13.65
2022-09-11T18:23:40.908Z,13.60
2022-09-11T18:26:10.085Z,14.02
2022-09-11T18:28:39.786Z,14.38
2022-09-11T18:31:07.793Z,14.15
2022-09-11T18:33:36.757Z,13.95
2022-09-11T18:36:05.644Z,14.55
2022-09-11T18:38:33.337Z,12.35
2022-09-11T18:41:01.261Z,14.23
2022-09-11T18:43:29.381Z,14.25
2022-09-11T18:45:57.091Z,13.93
2022-09-11T18:48:24.638Z,14.45
2022-09-11T18:50:54.842Z,14.10
2022-09-11T18:53:22.473Z,14.75
2022-09-11T18:56:02.168Z,14.10
2022-09-11T18:58:31.089Z,15.13
2022-09-11T19:01:00.304Z,12.80
2022-09-11T19:03:30.006Z,13.70
2022-09-11T19:06:03.867Z,14.02
2022-09-11T19:08:32.094Z,14.45
2022-09-11T19:11:00.295Z,13.68
2022-09-11T19:13:28.110Z,15.40
2022-09-11T19:15:56.772Z,13.85
2022-09-11T19:18:24.423Z,14.77
2022-09-11T19:20:57.777Z,14.45
2022-09-11T19:23:26.746Z,14.63
2022-09-11T19:25:54.242Z,14.35
2022-09-11T19:28:21.775Z,14.85
2022-09-11T19:30:56.972Z,13.90
2022-09-11T19:33:24.569Z,14.75
2022-09-11T19:35:57.265Z,14.55
2022-09-11T19:38:27.028Z,14.73
2022-09-11T19:40:54.565Z,13.10
2022-09-11T19:43:23.588Z,14.25
2022-09-11T19:45:51.256Z,14.85
2022-09-11T19:48:19.182Z,14.68
2022-09-11T19:50:46.798Z,15.73
2022-09-11T19:53:14.483Z,14.35
2022-09-11T19:55:43.365Z,14.88
2022-09-11T19:58:11.101Z,15.30
2022-09-11T20:00:39.251Z,15.98
2022-09-11T20:03:06.762Z,14.57
2022-09-11T20:05:34.248Z,14.63
2022-09-11T20:08:01.740Z,14.43
2022-09-11T20:10:30.146Z,14.02
2022-09-11T20:13:00.510Z,14.38
2022-09-11T20:15:28.211Z,15.40
2022-09-11T20:17:55.929Z,14.63
2022-09-11T20:20:23.436Z,14.43
2022-09-11T20:22:50.920Z,14.68
2022-09-11T20:25:19.090Z,15.23
2022-09-11T20:27:46.583Z,15.05
2022-09-11T20:30:15.628Z,14.90
2022-09-11T20:32:43.173Z,16.05
2022-09-11T20:35:10.933Z,14.00
2022-09-11T20:37:38.438Z,14.27
2022-09-11T20:40:07.468Z,14.25
2022-09-11T20:42:35.216Z,14.73
2022-09-11T20:45:02.690Z,15.02
2022-09-11T20:47:31.576Z,15.27
2022-09-11T20:50:00.631Z,14.48
2022-09-11T20:52:28.789Z,16.08
2022-09-11T20:54:56.264Z,15.68
2022-09-11T20:57:23.807Z,15.05
2022-09-11T20:59:51.305Z,16.15
2022-09-11T21:02:19.076Z,15.43
2022-09-11T21:04:48.887Z,17.77
2022-09-11T21:07:16.513Z,15.70
2022-09-11T21:09:44.798Z,16.17
2022-09-11T21:12:12.381Z,15.68
2022-09-11T21:14:40.154Z,15.50
2022-09-11T21:17:07.675Z,14.38
2022-09-11T21:19:35.232Z,14.13
2022-09-11T21:22:04.120Z,14.23
2022-09-11T21:24:31.607Z,14.38
2022-09-11T21:26:59.293Z,14.70
2022-09-11T21:29:26.774Z,13.98
2022-09-11T21:31:54.256Z,14.77
2022-09-11T21:34:21.741Z,14.65
2022-09-11T21:36:49.242Z,14.52
2022-09-11T21:39:18.147Z,15.35
2022-09-11T21:41:45.636Z,14.57
2022-09-11T21:44:13.243Z,14.82
2022-09-11T21:46:40.789Z,14.93
2022-09-11T21:49:08.276Z,15.48
2022-09-11T21:51:35.760Z,14.88
2022-09-11T21:54:03.350Z,16.00
2022-09-11T21:56:34.264Z,15.07
2022-09-11T21:59:02.345Z,16.25
2022-09-11T22:01:31.585Z,15.18
2022-09-11T22:04:00.092Z,15.63
2022-09-11T22:06:29.013Z,14.57
2022-09-11T22:08:57.146Z,14.73
2022-09-11T22:11:25.812Z,16.52
2022-09-11T22:13:55.411Z,15.93
2022-09-11T22:16:23.290Z,16.70
2022-09-11T22:18:52.853Z,15.88
2022-09-11T22:21:20.412Z,15.23
2022-09-11T22:23:47.979Z,16.67
2022-09-11T22:26:18.193Z,16.60
2022-09-11T22:28:45.684Z,15.65
2022-09-11T22:31:16.509Z,15.57
2022-09-11T22:33:44.450Z,15.90
2022-09-11T22:36:13.816Z,15.25
2022-09-11T22:38:42.473Z,15.85
2022-09-11T22:41:10.700Z,15.55
2022-09-11T22:43:38.492Z,15.32
2022-09-11T22:46:06.958Z,16.30
2022-09-11T22:48:35.961Z,16.30
2022-09-11T22:51:05.710Z,17.02
2022-09-11T22:53:33.257Z,15.38
2022-09-11T22:56:01.056Z,15.65
2022-09-11T22:58:30.493Z,15.90
2022-09-11T23:01:00.667Z,15.40
2022-09-11T23:03:28.389Z,15.43
2022-09-11T23:06:15.764Z,14.90
2022-09-11T23:08:45.583Z,14.75
2022-09-11T23:11:15.137Z,15.38
2022-09-11T23:13:43.093Z,14.95
2022-09-11T23:16:15.427Z,14.18
2022-09-11T23:18:44.220Z,14.75
2022-09-11T23:21:13.781Z,14.20
2022-09-11T23:23:42.781Z,14.77
2022-09-11T23:26:10.942Z,14.13
2022-09-11T23:28:39.393Z,15.15
2022-09-11T23:31:12.172Z,15.55
2022-09-11T23:33:39.702Z,15.52
2022-09-11T23:36:07.779Z,15.80
2022-09-11T23:38:36.794Z,15.63
2022-09-11T23:41:04.389Z,15.98
2022-09-11T23:43:32.138Z,14.70
2022-09-11T23:45:59.674Z,14.93
2022-09-11T23:48:27.263Z,13.98
2022-09-11T23:50:54.763Z,14.90
2022-09-11T23:53:22.293Z,14.13
2022-09-11T23:55:51.876Z,14.15
2022-09-11T23:58:19.393Z,13.85
